Time;durP1;ratioP1;P1;durP2;ratioP2;P2;SDS_P1;SDS_P2;PMS_P1;PMS_P2;Temp;Humidity;BMP_temperature;BMP_pressure;BME280_temperature;BME280_humidity;BME280_pressure;Samples;Min_cycle;Max_cycle;Signal;HPM_P1;HPM_P2
2022/02/27 00:01:17;;;;;;;12.98;9.98;;;;;;;-1.73;80.58;96466.97;6300558;22;20005;-61
2022/02/27 00:03:42;;;;;;;11.45;9.95;;;;;;;-1.71;80.53;96469.50;6300189;22;20007;-59
2022/02/27 00:06:07;;;;;;;13.15;9.27;;;;;;;-1.75;81.49;96463.59;6300279;22;20026;-60
2022/02/27 00:08:33;;;;;;;11.13;9.48;;;;;;;-1.82;81.49;96467.25;6300512;22;20015;-58
2022/02/27 00:10:58;;;;;;;14.10;9.90;;;;;;;-1.88;82.69;96461.38;6300891;22;20010;-58
2022/02/27 00:13:24;;;;;;;15.88;10.73;;;;;;;-1.86;82.44;96461.34;6300474;22;20003;-60
2022/02/27 00:15:49;;;;;;;12.05;9.95;;;;;;;-1.90;82.36;96459.72;6300029;22;20007;-60
2022/02/27 00:18:14;;;;;;;11.70;10.32;;;;;;;-1.91;82.39;96463.19;6300315;22;20059;-60
2022/02/27 00:20:40;;;;;;;9.50;8.45;;;;;;;-1.94;81.89;96459.00;6300796;22;20059;-60
2022/02/27 00:23:06;;;;;;;8.32;7.47;;;;;;;-1.94;82.53;96465.88;6300509;22;20059;-60
2022/02/27 00:25:31;;;;;;;11.25;8.55;;;;;;;-1.92;81.92;96456.34;6300612;22;20071;-60
2022/02/27 00:27:57;;;;;;;10.20;9.00;;;;;;;-1.88;81.09;96458.81;6300944;22;20003;-60
2022/02/27 00:30:22;;;;;;;9.50;8.50;;;;;;;-1.92;82.33;96457.22;6300501;22;20035;-60
2022/02/27 00:32:47;;;;;;;9.80;8.45;;;;;;;-1.97;82.26;96456.50;6300377;22;20060;-60
2022/02/27 00:35:13;;;;;;;8.38;7.45;;;;;;;-2.04;81.52;96460.16;6300096;22;20017;-61
2022/02/27 00:37:38;;;;;;;12.95;8.70;;;;;;;-2.09;82.28;96457.72;6300557;22;20023;-60
2022/02/27 00:40:06;;;;;;;8.80;7.97;;;;;;;-2.07;82.24;96458.53;6300738;22;20004;-60
2022/02/27 00:42:32;;;;;;;9.35;7.20;;;;;;;-2.09;81.45;96447.41;6300384;22;20010;-61
2022/02/27 00:44:58;;;;;;;15.18;7.70;;;;;;;-2.10;80.40;96460.34;6300272;22;20074;-60
2022/02/27 00:47:23;;;;;;;7.35;6.68;;;;;;;-2.09;81.00;96468.03;6300591;22;20465;-60
2022/02/27 00:49:49;;;;;;;8.80;6.80;;;;;;;-2.16;81.12;96472.53;6300555;22;20031;-60
2022/02/27 00:52:14;;;;;;;7.55;6.20;;;;;;;-2.22;81.94;96475.28;6300477;22;19999;-60
2022/02/27 00:54:39;;;;;;;6.47;5.30;;;;;;;-2.26;82.20;96481.41;6300647;22;20035;-60
2022/02/27 00:57:05;;;;;;;6.40;5.82;;;;;;;-2.29;82.94;96480.69;6300365;22;20003;-61
2022/02/27 00:59:30;;;;;;;6.68;5.47;;;;;;;-2.26;82.75;96481.41;6300242;22;20005;-60
2022/02/27 01:01:55;;;;;;;6.50;5.28;;;;;;;-2.22;82.14;96479.59;6300280;22;19995;-61
2022/02/27 01:04:21;;;;;;;5.75;5.20;;;;;;;-2.19;82.20;96476.94;6300334;22;20006;-60
2022/02/27 01:06:46;;;;;;;6.03;5.40;;;;;;;-2.22;82.36;96483.00;6299904;22;20439;-60
2022/02/27 01:09:12;;;;;;;6.82;5.68;;;;;;;-2.24;82.59;96483.97;6300289;22;20418;-61
2022/02/27 01:11:37;;;;;;;7.90;6.05;;;;;;;-2.29;83.62;96480.69;6300582;22;20086;-60
2022/02/27 01:14:03;;;;;;;6.78;6.07;;;;;;;-2.30;83.53;96487.56;6300353;22;20423;-61
2022/02/27 01:16:30;;;;;;;6.22;5.65;;;;;;;-2.35;83.05;96492.84;6300275;22;20052;-60
2022/02/27 01:18:56;;;;;;;8.38;5.40;;;;;;;-2.41;83.44;96492.19;6300230;22;20018;-60
2022/02/27 01:21:21;;;;;;;6.03;5.38;;;;;;;-2.42;82.90;96491.31;6300391;22;20439;-60
2022/02/27 01:23:47;;;;;;;6.88;5.22;;;;;;;-2.45;83.02;96481.94;6300105;22;20074;-60
2022/02/27 01:26:14;;;;;;;8.23;5.60;;;;;;;-2.50;83.61;96480.38;6300036;22;20003;-60
2022/02/27 01:28:40;;;;;;;6.40;5.32;;;;;;;-2.53;84.49;96483.06;6300094;22;20007;-60
2022/02/27 01:31:09;;;;;;;8.45;5.55;;;;;;;-2.55;83.36;96479.66;6272395;22;20032;-60
2022/02/27 01:33:35;;;;;;;5.35;4.85;;;;;;;-2.59;83.23;96479.75;6273142;22;20106;-60
2022/02/27 01:36:01;;;;;;;5.28;4.70;;;;;;;-2.59;84.61;96474.59;6300138;22;20452;-60
2022/02/27 01:38:26;;;;;;;6.35;5.63;;;;;;;-2.53;84.09;96475.31;6299998;22;20106;-61
2022/02/27 01:40:52;;;;;;;5.82;4.80;;;;;;;-2.48;84.43;96481.19;6299971;22;20041;-60
2022/02/27 01:43:18;;;;;;;8.65;5.78;;;;;;;-2.49;84.33;96479.50;6300243;22;20003;-61
2022/02/27 01:45:43;;;;;;;7.65;5.38;;;;;;;-2.50;83.42;96476.06;6300299;22;20003;-60
2022/02/27 01:48:09;;;;;;;6.57;5.50;;;;;;;-2.49;83.11;96471.75;6299363;22;20330;-60
2022/02/27 01:50:34;;;;;;;7.65;6.45;;;;;;;-2.49;83.35;96484.66;6300297;22;20011;-60
2022/02/27 01:53:00;;;;;;;7.70;6.90;;;;;;;-2.55;82.67;96472.78;6272791;22;20013;-61
2022/02/27 01:55:25;;;;;;;9.02;6.82;;;;;;;-2.56;83.15;96480.53;6300148;22;20136;-60
2022/02/27 01:57:51;;;;;;;7.20;6.07;;;;;;;-2.59;84.18;96486.66;6273043;22;20003;-60
2022/02/27 02:00:16;;;;;;;8.73;6.03;;;;;;;-2.64;84.68;96486.75;6272669;22;20015;-60
2022/02/27 02:02:44;;;;;;;6.65;5.47;;;;;;;-2.61;85.27;96484.09;6300095;22;19999;-60
2022/02/27 02:05:09;;;;;;;6.50;5.85;;;;;;;-2.62;84.63;96484.16;6300364;22;20048;-60
2022/02/27 02:07:35;;;;;;;7.93;6.10;;;;;;;-2.65;84.81;96486.81;6300319;22;20000;-60
2022/02/27 02:10:01;;;;;;;8.18;6.10;;;;;;;-2.63;84.35;96478.13;6299789;22;20015;-60
2022/02/27 02:12:27;;;;;;;7.75;6.07;;;;;;;-2.68;85.51;96473.97;6299953;22;20012;-61
2022/02/27 02:14:52;;;;;;;6.35;5.75;;;;;;;-2.69;84.93;96474.88;6300325;22;20078;-60
2022/02/27 02:17:17;;;;;;;8.80;6.15;;;;;;;-2.70;85.58;96470.59;6299995;22;20006;-60
2022/02/27 02:19:43;;;;;;;6.80;6.05;;;;;;;-2.72;84.74;96472.38;6299564;22;19999;-60
2022/02/27 02:22:08;;;;;;;11.77;7.10;;;;;;;-2.66;83.48;96474.78;6299970;22;20074;-59
2022/02/27 02:24:34;;;;;;;9.40;7.75;;;;;;;-2.65;83.31;96461.03;6300195;22;20003;-61
2022/02/27 02:26:59;;;;;;;11.27;7.30;;;;;;;-2.67;83.60;96468.81;6299739;22;19999;-60
2022/02/27 02:29:25;;;;;;;16.15;7.72;;;;;;;-2.73;85.13;96461.25;6300136;22;20051;-60
2022/02/27 02:31:53;;;;;;;14.90;10.25;;;;;;;-2.82;85.98;96453.75;6300277;22;20051;-60
2022/02/27 02:34:21;;;;;;;13.77;8.15;;;;;;;-2.80;85.05;96449.38;6300087;22;20027;-60
2022/02/27 02:36:47;;;;;;;15.05;8.98;;;;;;;-2.86;85.25;96446.97;6299723;22;20011;-60
2022/02/27 02:39:14;;;;;;;14.07;9.27;;;;;;;-2.88;85.46;96437.56;6299584;22;20530;-61
2022/02/27 02:41:41;;;;;;;11.65;8.30;;;;;;;-2.90;86.06;96441.91;6299484;22;20019;-60
2022/02/27 02:44:09;;;;;;;12.25;6.97;;;;;;;-2.88;84.76;96442.72;6299925;22;20499;-60
2022/02/27 02:46:35;;;;;;;11.82;7.30;;;;;;;-2.92;84.68;96441.13;6299518;22;20006;-60
2022/02/27 02:49:02;;;;;;;8.55;7.03;;;;;;;-2.97;84.44;96440.41;6299836;22;20003;-60
2022/02/27 02:51:28;;;;;;;8.30;6.70;;;;;;;-2.95;84.59;96446.34;6272423;22;20003;-61
2022/02/27 02:53:54;;;;;;;9.50;6.57;;;;;;;-2.97;85.15;96444.69;6299438;22;20070;-60
2022/02/27 02:56:19;;;;;;;8.02;5.40;;;;;;;-3.02;85.19;96447.38;6299751;22;20007;-59
2022/02/27 02:58:45;;;;;;;9.93;7.40;;;;;;;-3.04;85.54;96441.41;6298974;22;20007;-59
2022/02/27 03:01:15;;;;;;;10.25;9.18;;;;;;;-3.04;84.87;96441.41;6299847;22;20003;-59
2022/02/27 03:03:43;;;;;;;10.27;8.50;;;;;;;-3.05;84.21;96439.72;6299474;22;20455;-59
2022/02/27 03:06:10;;;;;;;9.18;6.90;;;;;;;-3.07;84.64;96438.94;6299753;22;20011;-58
2022/02/27 03:08:37;;;;;;;7.55;6.38;;;;;;;-3.09;85.37;96439.00;6299301;22;20404;-59
2022/02/27 03:11:02;;;;;;;6.97;6.28;;;;;;;-3.13;84.91;96439.94;6299523;22;20436;-62
2022/02/27 03:13:28;;;;;;;7.05;5.80;;;;;;;-3.11;84.32;96439.91;6298900;22;20016;-61
2022/02/27 03:15:53;;;;;;;11.13;6.10;;;;;;;-3.09;83.98;96444.16;6300087;22;20007;-61
2022/02/27 03:18:19;;;;;;;7.82;6.10;;;;;;;-3.08;84.06;96442.41;6299480;22;20042;-61
2022/02/27 03:20:44;;;;;;;6.10;5.50;;;;;;;-3.13;85.59;96444.25;6299524;22;20007;-60
2022/02/27 03:23:10;;;;;;;7.53;5.50;;;;;;;-3.18;85.21;96437.50;6299253;22;19999;-60
2022/02/27 03:25:35;;;;;;;5.47;4.97;;;;;;;-3.14;84.69;96434.84;6299053;22;20409;-60
2022/02/27 03:28:00;;;;;;;5.72;5.25;;;;;;;-3.11;85.50;96435.59;6299480;22;20007;-60
2022/02/27 03:30:26;;;;;;;5.80;5.30;;;;;;;-3.11;84.33;96433.00;6299448;22;19999;-60
2022/02/27 03:32:51;;;;;;;5.43;5.03;;;;;;;-3.11;84.26;96437.31;6272193;22;20083;-60
2022/02/27 03:35:18;;;;;;;6.10;5.43;;;;;;;-3.11;84.19;96438.16;6299140;22;20009;-60
2022/02/27 03:37:44;;;;;;;11.82;4.93;;;;;;;-3.15;83.99;96441.69;6299320;22;20004;-60
2022/02/27 03:40:10;;;;;;;5.90;5.40;;;;;;;-3.18;86.85;96437.50;6299502;22;20189;-60
2022/02/27 03:42:36;;;;;;;5.85;5.35;;;;;;;-3.21;86.63;96431.56;6299122;22;19999;-60
2022/02/27 03:45:01;;;;;;;5.53;4.97;;;;;;;-3.26;85.56;96436.00;6299407;22;20139;-60
2022/02/27 03:47:27;;;;;;;5.82;4.60;;;;;;;-3.28;86.31;96438.59;6299113;22;20014;-60
2022/02/27 03:49:54;;;;;;;6.93;4.90;;;;;;;-3.32;86.12;96434.41;6299122;22;20006;-61
2022/02/27 03:52:20;;;;;;;8.52;5.43;;;;;;;-3.35;85.63;96442.22;6300605;22;20007;-60
2022/02/27 03:54:45;;;;;;;5.47;4.78;;;;;;;-3.33;85.05;96450.75;6300792;22;20062;-60
2022/02/27 03:57:10;;;;;;;5.75;5.25;;;;;;;-3.28;85.94;96448.06;6301099;22;20051;-60
2022/02/27 03:59:36;;;;;;;5.45;4.93;;;;;;;-3.33;86.07;96455.91;6300610;22;19995;-60
2022/02/27 04:02:01;;;;;;;6.15;4.85;;;;;;;-3.39;85.97;96456.88;6300967;22;20139;-60
2022/02/27 04:04:26;;;;;;;5.35;4.70;;;;;;;-3.46;87.10;96450.22;6300495;22;20029;-60
2022/02/27 04:06:52;;;;;;;5.90;5.10;;;;;;;-3.50;87.25;96454.59;6300598;22;20003;-60
2022/02/27 04:09:17;;;;;;;5.18;4.63;;;;;;;-3.49;86.50;96450.28;6300684;22;20067;-61
2022/02/27 04:11:42;;;;;;;6.38;5.15;;;;;;;-3.51;86.36;96450.31;6300491;22;20010;-60
2022/02/27 04:14:08;;;;;;;5.70;4.45;;;;;;;-3.51;86.21;96462.34;6300587;22;20075;-60
2022/02/27 04:16:33;;;;;;;5.40;4.90;;;;;;;-3.54;85.60;96457.25;6300497;22;20079;-60
2022/02/27 04:18:59;;;;;;;10.23;5.07;;;;;;;-3.58;85.53;96456.50;6300788;22;20423;-60
2022/02/27 04:21:24;;;;;;;6.50;5.10;;;;;;;-3.58;85.89;96466.81;6300400;22;20575;-60
2022/02/27 04:23:50;;;;;;;8.98;5.38;;;;;;;-3.58;86.83;96461.66;6300438;22;20006;-60
2022/02/27 04:26:15;;;;;;;6.30;5.60;;;;;;;-3.54;86.35;96468.41;6300998;22;20011;-60
2022/02/27 04:28:40;;;;;;;7.00;4.68;;;;;;;-3.56;86.37;96462.47;6300226;22;20435;-60
2022/02/27 04:31:06;;;;;;;5.82;4.90;;;;;;;-3.58;86.54;96465.94;6300601;22;20474;-61
2022/02/27 04:33:31;;;;;;;5.65;5.07;;;;;;;-3.58;86.93;96464.22;6300386;22;20042;-61
2022/02/27 04:35:56;;;;;;;4.88;4.40;;;;;;;-3.54;86.59;96467.56;6300644;22;20007;-60
2022/02/27 04:38:22;;;;;;;4.70;4.30;;;;;;;-3.52;85.96;96466.66;6300231;22;20069;-60
2022/02/27 04:40:47;;;;;;;8.77;4.97;;;;;;;-3.55;85.83;96468.44;6300281;22;20343;-61
2022/02/27 04:43:13;;;;;;;5.10;4.63;;;;;;;-3.56;86.88;96470.19;6300995;22;20124;-60
2022/02/27 04:45:38;;;;;;;5.43;4.93;;;;;;;-3.56;86.85;96475.34;6300244;22;20431;-60
2022/02/27 04:48:04;;;;;;;5.10;4.60;;;;;;;-3.56;86.68;96467.59;6300682;22;20003;-61
2022/02/27 04:50:29;;;;;;;5.03;4.57;;;;;;;-3.53;86.90;96464.97;6300211;22;20003;-61
2022/02/27 04:52:55;;;;;;;5.75;4.65;;;;;;;-3.53;86.58;96467.53;6300583;22;20007;-60
2022/02/27 04:55:21;;;;;;;5.60;5.05;;;;;;;-3.53;86.06;96467.53;6300429;22;20010;-60
2022/02/27 04:57:46;;;;;;;5.53;5.00;;;;;;;-3.60;85.78;96468.56;6300939;22;20011;-61
2022/02/27 05:00:12;;;;;;;5.97;5.20;;;;;;;-3.62;85.76;96471.16;6300491;22;20003;-60
2022/02/27 05:02:38;;;;;;;6.75;5.25;;;;;;;-3.67;86.19;96479.88;6300178;22;20439;-60
2022/02/27 05:05:04;;;;;;;8.98;5.95;;;;;;;-3.72;86.72;96477.44;6300799;22;20010;-61
2022/02/27 05:07:29;;;;;;;6.85;5.47;;;;;;;-3.68;86.70;96470.47;6300072;22;20010;-60
2022/02/27 05:09:55;;;;;;;6.65;5.50;;;;;;;-3.63;85.34;96463.50;6300286;22;20011;-60
2022/02/27 05:12:20;;;;;;;11.23;7.63;;;;;;;-3.62;85.86;96470.34;6300387;22;20063;-62
2022/02/27 05:14:46;;;;;;;8.27;6.47;;;;;;;-3.64;85.40;96480.66;6300368;22;20042;-60
2022/02/27 05:17:11;;;;;;;9.43;6.85;;;;;;;-3.68;86.34;96476.47;6300316;22;19999;-60
2022/02/27 05:19:37;;;;;;;15.93;9.15;;;;;;;-3.70;85.84;96485.09;6300260;22;20010;-60
2022/02/27 05:22:04;;;;;;;17.75;9.43;;;;;;;-3.72;86.02;96484.28;6300369;22;20041;-60
2022/02/27 05:24:29;;;;;;;23.20;8.60;;;;;;;-3.71;86.49;96481.69;6300682;22;20010;-60
2022/02/27 05:26:55;;;;;;;15.23;7.70;;;;;;;-3.72;86.12;96487.72;6300283;22;20003;-60
2022/02/27 05:29:20;;;;;;;8.70;6.25;;;;;;;-3.74;86.34;96477.44;6299964;22;19995;-60
2022/02/27 05:31:45;;;;;;;11.30;8.23;;;;;;;-3.74;87.17;96477.44;6272346;22;20007;-61
2022/02/27 05:34:11;;;;;;;8.98;6.50;;;;;;;-3.78;86.81;96480.13;6300761;22;20003;-60
2022/02/27 05:36:37;;;;;;;8.38;6.07;;;;;;;-3.80;86.82;96481.88;6300418;22;20091;-60
2022/02/27 05:39:04;;;;;;;10.27;6.03;;;;;;;-3.82;88.30;96483.66;6300207;22;20088;-61
2022/02/27 05:41:29;;;;;;;6.72;5.80;;;;;;;-3.84;87.82;96480.25;6300162;22;20048;-61
2022/02/27 05:43:55;;;;;;;5.43;4.93;;;;;;;-3.86;87.12;96488.03;6300540;22;20004;-60
2022/02/27 05:46:20;;;;;;;4.97;4.57;;;;;;;-3.86;86.47;96488.03;6299763;22;20022;-60
2022/02/27 05:48:46;;;;;;;12.98;7.30;;;;;;;-3.83;86.25;96490.53;6299626;22;20003;-61
2022/02/27 05:51:11;;;;;;;7.15;6.28;;;;;;;-3.81;86.28;96491.34;6300339;22;20062;-60
2022/02/27 05:53:37;;;;;;;7.60;5.70;;;;;;;-3.82;86.97;96487.09;6300141;22;20003;-60
2022/02/27 05:56:02;;;;;;;6.43;5.85;;;;;;;-3.87;86.46;96491.47;6300184;22;20014;-61
2022/02/27 05:58:30;;;;;;;5.47;4.90;;;;;;;-3.88;86.73;96494.91;6300020;22;20007;-60
2022/02/27 06:00:57;;;;;;;8.27;4.65;;;;;;;-3.88;86.50;96502.63;6300354;22;20058;-60
2022/02/27 06:03:26;;;;;;;6.15;4.68;;;;;;;-3.90;86.71;96497.53;6300456;22;20004;-60
2022/02/27 06:05:51;;;;;;;7.53;4.45;;;;;;;-3.89;87.24;96498.38;6300046;22;20007;-60
2022/02/27 06:08:17;;;;;;;7.40;4.53;;;;;;;-3.88;86.10;96505.22;6299607;22;20664;-61
2022/02/27 06:10:42;;;;;;;7.63;5.05;;;;;;;-3.86;86.55;96508.63;6300004;22;20022;-60
2022/02/27 06:13:08;;;;;;;6.68;4.43;;;;;;;-3.82;86.62;96509.38;6299426;22;20018;-61
2022/02/27 06:15:33;;;;;;;7.80;5.78;;;;;;;-3.85;86.92;96510.31;6300039;22;20461;-60
2022/02/27 06:17:59;;;;;;;9.13;6.43;;;;;;;-3.86;86.80;96511.19;6300265;22;20000;-60
2022/02/27 06:20:24;;;;;;;5.28;4.70;;;;;;;-3.87;88.12;96517.19;6272506;22;20056;-60
2022/02/27 06:22:50;;;;;;;5.93;5.43;;;;;;;-3.91;87.73;96510.44;6299874;22;20035;-60
2022/02/27 06:25:17;;;;;;;6.15;5.40;;;;;;;-3.93;87.64;96515.63;6300381;22;20019;-60
2022/02/27 06:27:43;;;;;;;6.22;5.13;;;;;;;-3.91;87.54;96513.00;6272638;22;19999;-61
2022/02/27 06:30:20;;;;;;;6.38;5.03;;;;;;;-3.89;86.52;96509.53;6300041;22;20007;-61
2022/02/27 06:32:49;;;;;;;7.75;6.22;;;;;;;-3.89;86.62;96503.50;6299903;22;20007;-60
2022/02/27 06:35:17;;;;;;;8.88;6.60;;;;;;;-3.89;87.43;96504.38;6300029;22;20087;-60
2022/02/27 06:37:43;;;;;;;5.97;5.47;;;;;;;-3.88;86.89;96510.34;6272204;22;20003;-59
2022/02/27 06:40:09;;;;;;;9.85;7.03;;;;;;;-3.93;87.81;96515.63;6299940;22;20009;-60
2022/02/27 06:42:36;;;;;;;7.85;5.63;;;;;;;-3.95;89.45;96514.81;6299486;22;20010;-60
2022/02/27 06:45:02;;;;;;;7.60;6.07;;;;;;;-3.88;87.68;96510.34;6299838;22;20011;-60
2022/02/27 06:47:27;;;;;;;10.75;7.38;;;;;;;-3.90;88.09;96517.25;6299573;22;20007;-60
2022/02/27 06:49:53;;;;;;;7.68;6.38;;;;;;;-3.91;89.48;96507.84;6299721;22;20087;-60
2022/02/27 06:52:18;;;;;;;7.35;6.10;;;;;;;-3.90;89.51;96512.13;6300017;22;20419;-61
2022/02/27 06:54:43;;;;;;;7.47;6.75;;;;;;;-3.92;89.31;96509.59;6299353;22;20007;-60
2022/02/27 06:57:10;;;;;;;7.95;6.13;;;;;;;-3.90;88.78;96515.53;6299965;22;20108;-60
2022/02/27 06:59:35;;;;;;;7.20;6.50;;;;;;;-3.88;88.52;96505.22;6299510;22;20003;-60
2022/02/27 07:02:01;;;;;;;9.02;7.22;;;;;;;-3.84;88.41;96508.56;6299074;22;20371;-62
2022/02/27 07:04:26;;;;;;;10.13;7.10;;;;;;;-3.76;88.05;96515.25;6299641;22;20600;-60
2022/02/27 07:06:51;;;;;;;8.93;6.88;;;;;;;-3.75;87.61;96518.69;6299409;22;20007;-60
2022/02/27 07:09:17;;;;;;;8.77;6.97;;;;;;;-3.72;88.27;96512.59;6299381;22;20064;-59
2022/02/27 07:11:44;;;;;;;7.80;7.10;;;;;;;-3.74;88.08;96512.66;6299448;22;20457;-60
2022/02/27 07:14:10;;;;;;;7.30;6.43;;;;;;;-3.68;88.26;96516.78;6300013;22;20007;-59
2022/02/27 07:16:36;;;;;;;15.27;6.32;;;;;;;-3.65;87.37;96525.28;6271970;22;20007;-59
2022/02/27 07:19:02;;;;;;;9.48;8.45;;;;;;;-3.60;87.52;96525.19;6299586;22;20453;-59
2022/02/27 07:21:27;;;;;;;8.65;7.78;;;;;;;-3.61;87.72;96520.94;6299814;22;20008;-59
2022/02/27 07:23:53;;;;;;;8.10;7.28;;;;;;;-3.62;87.94;96520.06;6299359;22;20011;-59
2022/02/27 07:26:18;;;;;;;8.98;8.05;;;;;;;-3.61;88.91;96524.34;6300433;22;20082;-60
2022/02/27 07:28:43;;;;;;;9.18;7.22;;;;;;;-3.62;88.42;96526.97;6300736;22;20052;-59
2022/02/27 07:31:09;;;;;;;7.28;6.55;;;;;;;-3.62;89.01;96532.94;6300678;22;20520;-59
2022/02/27 07:33:34;;;;;;;9.15;7.18;;;;;;;-3.58;88.56;96526.00;6301369;22;20400;-60
2022/02/27 07:36:00;;;;;;;9.15;6.82;;;;;;;-3.52;88.61;96531.00;6300790;22;20014;-59
2022/02/27 07:38:25;;;;;;;11.70;7.50;;;;;;;-3.49;88.49;96528.38;6300430;22;19999;-60
2022/02/27 07:40:51;;;;;;;9.88;7.95;;;;;;;-3.46;88.43;96528.28;6299947;22;20003;-59
2022/02/27 07:43:18;;;;;;;8.07;7.20;;;;;;;-3.43;88.50;96524.81;6300794;22;20030;-59
2022/02/27 07:45:44;;;;;;;10.32;7.18;;;;;;;-3.43;89.13;96526.53;6300460;22;20007;-59
2022/02/27 07:48:10;;;;;;;8.25;6.88;;;;;;;-3.43;88.92;96527.38;6300519;22;20003;-59
2022/02/27 07:50:35;;;;;;;7.45;6.72;;;;;;;-3.41;89.00;96535.91;6300273;22;20075;-59
2022/02/27 07:53:00;;;;;;;8.52;6.90;;;;;;;-3.38;88.24;96530.69;6300690;22;20015;-59
2022/02/27 07:55:27;;;;;;;8.77;7.18;;;;;;;-3.34;87.61;96536.63;6299216;22;20346;-59
2022/02/27 07:57:52;;;;;;;8.60;6.40;;;;;;;-3.28;87.66;96535.63;6298948;22;20044;-59
2022/02/27 08:00:17;;;;;;;7.97;7.20;;;;;;;-3.21;87.78;96543.16;6297903;22;20015;-61
2022/02/27 08:02:43;;;;;;;10.73;7.63;;;;;;;-3.14;87.90;96532.72;6271031;22;20008;-61
2022/02/27 08:05:09;;;;;;;8.35;7.57;;;;;;;-3.05;86.78;96537.63;6297763;22;19999;-61
2022/02/27 08:07:34;;;;;;;8.70;7.82;;;;;;;-3.00;85.94;96534.97;6298400;22;20761;-60
2022/02/27 08:09:59;;;;;;;11.85;7.32;;;;;;;-3.01;86.72;96528.94;6299825;22;20015;-59
2022/02/27 08:12:25;;;;;;;7.75;6.95;;;;;;;-2.98;86.54;96534.06;6300314;22;20426;-59
2022/02/27 08:14:50;;;;;;;8.57;7.70;;;;;;;-2.70;86.38;96538.50;6300439;22;20398;-52
2022/02/27 08:17:18;;;;;;;10.25;8.63;;;;;;;-2.17;86.82;96545.66;6299296;22;20316;-55
2022/02/27 08:19:44;;;;;;;10.48;8.18;;;;;;;-1.60;84.49;96547.50;6300168;22;20007;-54
2022/02/27 08:22:10;;;;;;;40.30;17.00;;;;;;;-0.94;83.21;96543.72;6300791;22;20004;-53
2022/02/27 08:24:35;;;;;;;68.57;32.33;;;;;;;-0.31;81.13;96540.72;6298226;22;20327;-53
2022/02/27 08:27:01;;;;;;;32.20;18.02;;;;;;;0.17;78.26;96545.94;6299020;22;20016;-55
2022/02/27 08:29:26;;;;;;;21.67;14.52;;;;;;;0.23;76.29;96548.31;6300148;22;19999;-53
2022/02/27 08:31:52;;;;;;;26.50;13.60;;;;;;;0.31;77.01;96548.00;6272236;22;20010;-51
2022/02/27 08:34:17;;;;;;;13.55;9.40;;;;;;;0.55;76.09;96547.09;6300050;22;20014;-53
2022/02/27 08:36:42;;;;;;;9.02;7.13;;;;;;;0.87;74.79;96556.25;6299226;22;20006;-54
2022/02/27 08:39:09;;;;;;;7.45;6.18;;;;;;;1.14;72.92;96549.94;6300039;22;20082;-54
2022/02/27 08:41:36;;;;;;;7.35;5.57;;;;;;;1.47;70.73;96552.97;6297509;22;20447;-50
2022/02/27 08:44:01;;;;;;;8.27;6.07;;;;;;;1.73;69.57;96561.41;6299020;22;20014;-54
2022/02/27 08:46:27;;;;;;;14.82;8.55;;;;;;;2.05;68.61;96561.72;6300045;22;20007;-55
2022/02/27 08:48:53;;;;;;;9.23;6.97;;;;;;;2.10;66.56;96557.16;6298373;22;20038;-56
2022/02/27 08:51:18;;;;;;;9.23;5.82;;;;;;;2.39;65.58;96555.03;6299438;22;20132;-51
2022/02/27 08:53:43;;;;;;;5.70;4.53;;;;;;;2.55;62.58;96548.22;6271956;22;20038;-55
2022/02/27 08:56:09;;;;;;;6.95;5.80;;;;;;;2.54;62.88;96556.06;6299658;22;20350;-53
2022/02/27 08:58:34;;;;;;;5.85;5.25;;;;;;;2.60;60.88;96547.16;6298825;22;20014;-51
2022/02/27 09:01:00;;;;;;;4.47;4.07;;;;;;;2.77;60.56;96549.81;6301084;22;20007;-55
2022/02/27 09:03:27;;;;;;;6.32;5.40;;;;;;;2.96;61.73;96544.56;6300690;22;20395;-53
2022/02/27 09:05:54;;;;;;;7.45;4.50;;;;;;;2.95;60.70;96544.63;6300344;22;20074;-54
2022/02/27 09:08:20;;;;;;;4.97;4.57;;;;;;;3.16;61.45;96550.56;6300261;22;20004;-53
2022/02/27 09:10:45;;;;;;;14.05;7.28;;;;;;;3.27;59.30;96539.63;6300440;22;20026;-55
2022/02/27 09:13:12;;;;;;;9.10;6.40;;;;;;;3.49;60.10;96535.94;6300346;22;20007;-54
2022/02/27 09:15:37;;;;;;;7.70;6.07;;;;;;;3.68;59.04;96538.44;6300039;22;20030;-53
2022/02/27 09:18:03;;;;;;;4.47;4.07;;;;;;;3.68;56.70;96535.84;6300348;22;20082;-54
2022/02/27 09:20:28;;;;;;;6.72;4.97;;;;;;;3.78;56.11;96531.00;6300337;22;20105;-53
2022/02/27 09:22:54;;;;;;;4.43;4.10;;;;;;;3.96;56.44;96524.84;6300468;22;20070;-53
2022/02/27 09:25:19;;;;;;;7.22;5.03;;;;;;;3.90;55.60;96521.69;6300554;22;20438;-54
2022/02/27 09:27:45;;;;;;;5.68;4.75;;;;;;;4.08;54.31;96514.66;6300088;22;20087;-54
2022/02/27 09:30:12;;;;;;;7.45;4.55;;;;;;;4.23;53.53;96519.06;6300348;22;19999;-54
2022/02/27 09:32:38;;;;;;;6.50;4.75;;;;;;;4.12;52.58;96514.44;6300223;22;20346;-54
2022/02/27 09:35:05;;;;;;;6.30;4.25;;;;;;;4.25;52.57;96511.19;6272644;22;20007;-54
2022/02/27 09:37:32;;;;;;;4.90;4.40;;;;;;;4.55;52.09;96513.03;6300464;22;20373;-54
2022/02/27 09:39:58;;;;;;;5.57;4.97;;;;;;;4.83;51.05;96514.97;6299888;22;20010;-54
2022/02/27 09:42:28;;;;;;;10.00;5.22;;;;;;;4.97;51.23;96505.50;6300271;22;20007;-53
2022/02/27 09:44:54;;;;;;;7.10;5.93;;;;;;;4.99;50.34;96501.88;6300310;22;20003;-52
2022/02/27 09:47:20;;;;;;;5.68;4.72;;;;;;;5.11;49.79;96502.94;6300123;22;19999;-55
2022/02/27 09:49:48;;;;;;;6.10;4.72;;;;;;;5.26;49.03;96493.38;6299345;22;20347;-54
2022/02/27 09:52:19;;;;;;;9.50;6.43;;;;;;;5.66;48.44;96486.75;6300641;22;20007;-50
2022/02/27 09:54:45;;;;;;;7.43;4.60;;;;;;;6.06;47.59;96480.88;6299928;22;20003;-53
2022/02/27 09:57:15;;;;;;;6.95;4.93;;;;;;;6.16;47.75;96484.63;6300166;22;20010;-54
2022/02/27 09:59:41;;;;;;;5.85;4.68;;;;;;;6.41;45.97;96485.72;6300287;22;20006;-52
2022/02/27 10:02:06;;;;;;;6.97;4.85;;;;;;;6.69;45.92;96481.31;6300246;22;20062;-54
2022/02/27 10:04:37;;;;;;;4.95;4.47;;;;;;;6.83;44.11;96483.91;6300022;22;20031;-51
2022/02/27 10:07:12;;;;;;;7.47;4.75;;;;;;;6.98;42.93;96468.97;6300137;22;20007;-54
2022/02/27 10:09:38;;;;;;;6.00;5.03;;;;;;;7.45;41.93;96481.63;6300141;22;20019;-54
2022/02/27 10:12:14;;;;;;;6.97;4.35;;;;;;;8.00;41.46;96473.56;6300021;22;19999;-55
2022/02/27 10:14:41;;;;;;;4.32;3.92;;;;;;;8.31;40.75;96459.16;6299713;22;20034;-54
2022/02/27 10:17:07;;;;;;;5.63;4.90;;;;;;;8.27;40.78;96455.03;6300057;22;19999;-54
2022/02/27 10:19:40;;;;;;;5.72;4.18;;;;;;;8.07;40.69;96452.97;6300063;22;20030;-53
2022/02/27 10:22:08;;;;;;;7.18;4.53;;;;;;;7.88;40.48;96452.50;6300060;22;20451;-54
2022/02/27 10:24:36;;;;;;;4.43;4.00;;;;;;;8.07;40.51;96458.22;6299816;22;20003;-52
2022/02/27 10:27:10;;;;;;;7.75;4.22;;;;;;;7.96;39.94;96454.59;6300071;22;20033;-55
2022/02/27 10:29:36;;;;;;;5.95;4.10;;;;;;;8.20;39.03;96452.97;6300508;22;20067;-54
2022/02/27 10:32:03;;;;;;;7.47;4.25;;;;;;;8.21;38.75;96449.41;6300180;22;20094;-55
2022/02/27 10:34:34;;;;;;;8.40;4.13;;;;;;;8.41;37.79;96443.59;6299876;22;20010;-54
2022/02/27 10:37:05;;;;;;;4.72;3.63;;;;;;;8.35;37.13;96441.38;6272398;22;20067;-54
2022/02/27 10:39:39;;;;;;;4.55;3.35;;;;;;;8.45;37.07;96441.56;6300155;22;20019;-55
2022/02/27 10:42:26;;;;;;;4.05;3.20;;;;;;;8.76;37.02;96433.28;6299759;22;20004;-52
2022/02/27 10:44:58;;;;;;;6.00;3.60;;;;;;;8.76;37.43;96443.78;6299702;22;19999;-53
2022/02/27 10:47:27;;;;;;;5.35;4.00;;;;;;;8.71;36.07;96447.59;6299933;22;20387;-55
2022/02/27 10:49:55;;;;;;;4.65;3.40;;;;;;;9.19;35.68;96439.78;6299700;22;20007;-53
2022/02/27 10:52:28;;;;;;;21.33;4.07;;;;;;;9.50;35.84;96440.09;6299998;22;20052;-55
2022/02/27 10:54:56;;;;;;;8.38;3.28;;;;;;;10.07;35.18;96440.97;6299381;22;20007;-54
2022/02/27 10:57:41;;;;;;;5.03;3.63;;;;;;;10.54;32.86;96446.09;6299852;22;20031;-55
2022/02/27 11:00:29;;;;;;;4.75;3.75;;;;;;;11.05;31.21;96441.13;6300160;22;20014;-54
2022/02/27 11:03:02;;;;;;;3.30;3.10;;;;;;;11.37;32.68;96434.13;6300718;22;20524;-54
2022/02/27 11:05:30;;;;;;;3.78;3.10;;;;;;;11.20;29.97;96432.91;6298946;22;20010;-55
2022/02/27 11:07:58;;;;;;;4.35;3.50;;;;;;;11.76;31.11;96434.38;6272943;22;20396;-55
2022/02/27 11:10:27;;;;;;;5.80;3.78;;;;;;;12.06;30.36;96430.09;6299872;22;20011;-54
2022/02/27 11:12:54;;;;;;;5.90;3.90;;;;;;;12.53;30.55;96426.91;6300215;22;20007;-56
2022/02/27 11:15:21;;;;;;;4.57;3.55;;;;;;;12.44;29.79;96423.25;6299602;22;20100;-57
2022/02/27 11:17:47;;;;;;;4.50;3.22;;;;;;;12.83;30.07;96422.47;6300583;22;20006;-56
2022/02/27 11:20:15;;;;;;;4.28;3.00;;;;;;;12.57;29.07;96420.38;6299646;22;20007;-58
2022/02/27 11:22:40;;;;;;;6.85;4.30;;;;;;;12.53;29.18;96418.97;6299413;22;20571;-56
2022/02/27 11:25:08;;;;;;;3.83;3.42;;;;;;;13.06;28.73;96416.09;6300408;22;20010;-57
2022/02/27 11:27:52;;;;;;;4.28;3.38;;;;;;;12.94;29.49;96418.03;6300244;22;20062;-56
2022/02/27 11:30:21;;;;;;;3.20;2.90;;;;;;;13.64;28.29;96415.19;6300484;22;20350;-53